createdAt,value
2019-04-25T00:01:11.594Z,13.68
2019-04-25T00:03:42.554Z,13.72
2019-04-25T00:06:13.397Z,13.69
2019-04-25T00:08:44.043Z,13.65
2019-04-25T00:11:13.748Z,13.61
2019-04-25T00:13:44.068Z,13.61
2019-04-25T00:16:14.579Z,13.60
2019-04-25T00:18:44.260Z,13.62
2019-04-25T00:21:21.988Z,13.62
2019-04-25T00:23:56.254Z,13.54
2019-04-25T00:26:44.019Z,13.52
2019-04-25T00:29:13.263Z,13.40
2019-04-25T00:31:45.680Z,13.35
2019-04-25T00:34:15.420Z,13.36
2019-04-25T00:36:45.618Z,13.41
2019-04-25T00:39:15.216Z,13.41
2019-04-25T00:41:46.140Z,13.38
2019-04-25T00:44:15.873Z,13.33
2019-04-25T00:46:48.598Z,13.28
2019-04-25T00:49:16.567Z,13.24
2019-04-25T00:51:46.175Z,13.22
2019-04-25T00:54:15.595Z,13.18
2019-04-25T00:56:47.767Z,13.11
2019-04-25T00:59:25.131Z,13.05
2019-04-25T01:02:07.543Z,13.01
2019-04-25T01:04:36.177Z,12.98
2019-04-25T01:07:05.716Z,12.96
2019-04-25T01:09:35.177Z,12.93
2019-04-25T01:12:04.714Z,12.98
2019-04-25T01:14:34.324Z,13.03
2019-04-25T01:17:03.897Z,12.94
2019-04-25T01:19:34.462Z,12.94
2019-04-25T01:22:04.277Z,12.94
2019-04-25T01:24:34.049Z,12.95
2019-04-25T01:27:05.329Z,12.91
2019-04-25T01:29:34.893Z,12.92
2019-04-25T01:32:06.540Z,12.90
2019-04-25T01:35:00.084Z,12.76
2019-04-25T01:37:43.716Z,12.62
2019-04-25T01:40:38.305Z,12.59
2019-04-25T01:43:26.302Z,12.61
2019-04-25T01:45:56.838Z,12.59
2019-04-25T01:48:26.342Z,12.58
2019-04-25T01:50:56.517Z,12.50
2019-04-25T01:53:26.102Z,12.52
2019-04-25T01:56:01.564Z,12.58
2019-04-25T01:58:26.913Z,12.48
2019-04-25T02:00:57.324Z,12.43
2019-04-25T02:03:27.369Z,12.38
2019-04-25T02:05:57.304Z,12.35
2019-04-25T02:08:26.901Z,12.39
2019-04-25T02:11:07.406Z,12.37
2019-04-25T02:13:37.027Z,12.38
2019-04-25T02:16:08.159Z,12.29
2019-04-25T02:18:37.751Z,12.19
2019-04-25T02:21:07.591Z,12.22
2019-04-25T02:23:37.071Z,12.22
2019-04-25T02:26:15.663Z,12.26
2019-04-25T02:28:37.893Z,12.32
2019-04-25T02:31:08.873Z,12.31
2019-04-25T02:33:38.584Z,12.34
2019-04-25T02:36:08.878Z,12.38
2019-04-25T02:38:38.484Z,12.37
2019-04-25T02:41:09.059Z,12.36
2019-04-25T02:43:38.659Z,12.37
2019-04-25T02:46:37.107Z,12.43
2019-04-25T02:49:40.146Z,12.41
2019-04-25T02:52:31.513Z,12.44
2019-04-25T02:55:02.119Z,12.41
2019-04-25T02:57:34.415Z,12.38
2019-04-25T03:00:06.741Z,12.40
2019-04-25T03:02:36.770Z,12.34
2019-04-25T03:05:09.574Z,12.30
2019-04-25T03:07:37.362Z,12.23
2019-04-25T03:10:09.813Z,12.21
2019-04-25T03:12:39.491Z,12.22
2019-04-25T03:15:10.293Z,12.21
2019-04-25T03:17:40.122Z,12.13
2019-04-25T03:20:24.417Z,11.99
2019-04-25T03:22:54.803Z,11.98
2019-04-25T03:25:24.940Z,11.87
2019-04-25T03:27:54.513Z,11.82
2019-04-25T03:30:25.577Z,11.77
2019-04-25T03:32:56.192Z,11.81
2019-04-25T03:35:25.850Z,11.81
2019-04-25T03:37:55.348Z,11.74
2019-04-25T03:40:24.817Z,11.70
2019-04-25T03:42:54.319Z,11.70
2019-04-25T03:45:23.813Z,11.71
2019-04-25T03:47:53.319Z,11.69
2019-04-25T03:50:23.269Z,11.61
2019-04-25T03:52:54.035Z,11.63
2019-04-25T03:55:24.128Z,11.58
2019-04-25T03:57:53.988Z,11.56
2019-04-25T04:00:24.099Z,11.60
2019-04-25T04:02:55.382Z,11.70
2019-04-25T04:05:24.953Z,11.73
2019-04-25T04:07:54.451Z,11.74
2019-04-25T04:10:23.933Z,11.75
2019-04-25T04:12:54.256Z,11.82
2019-04-25T04:15:25.069Z,11.84
2019-04-25T04:18:01.679Z,11.89
2019-04-25T04:20:41.472Z,11.90
2019-04-25T04:23:33.223Z,12.00
2019-04-25T04:26:03.299Z,12.11
2019-04-25T04:28:33.748Z,12.27
2019-04-25T04:31:03.727Z,12.40
2019-04-25T04:33:34.621Z,12.56
2019-04-25T04:36:04.162Z,12.77
2019-04-25T04:38:34.206Z,12.93
2019-04-25T04:41:04.075Z,13.12
2019-04-25T04:43:34.207Z,13.22
2019-04-25T04:46:04.006Z,13.50
2019-04-25T04:48:34.245Z,13.70
2019-04-25T04:51:03.903Z,13.79
2019-04-25T04:53:33.868Z,14.12
2019-04-25T04:56:04.672Z,14.21
2019-04-25T04:58:34.347Z,14.36
2019-04-25T05:01:03.867Z,14.47
2019-04-25T05:03:51.973Z,14.47
2019-04-25T05:06:41.280Z,14.71
2019-04-25T05:09:20.031Z,14.81
2019-04-25T05:11:49.521Z,14.83
2019-04-25T05:14:19.518Z,14.89
2019-04-25T05:16:49.607Z,14.91
2019-04-25T05:19:19.931Z,14.97
2019-04-25T05:21:49.459Z,15.03
2019-04-25T05:24:18.985Z,15.05
2019-04-25T05:26:48.468Z,15.00
2019-04-25T05:29:21.331Z,14.99
2019-04-25T05:31:51.414Z,14.95
2019-04-25T05:34:21.691Z,14.92
2019-04-25T05:36:51.351Z,14.90
2019-04-25T05:39:20.840Z,15.12
2019-04-25T05:42:16.271Z,15.36
2019-04-25T05:44:46.346Z,15.51
2019-04-25T05:47:16.272Z,15.62
2019-04-25T05:49:46.583Z,15.62
2019-04-25T05:52:16.114Z,15.73
2019-04-25T05:54:45.660Z,15.78
2019-04-25T05:57:16.535Z,15.80
2019-04-25T05:59:46.170Z,15.91
2019-04-25T06:02:15.655Z,15.80
2019-04-25T06:04:45.166Z,15.81
2019-04-25T06:07:14.662Z,15.87
2019-04-25T06:09:52.093Z,15.83
2019-04-25T06:12:45.031Z,15.86
2019-04-25T06:15:14.781Z,15.92
2019-04-25T06:18:03.882Z,15.90
2019-04-25T06:20:35.975Z,15.83
2019-04-25T06:23:18.882Z,15.92
2019-04-25T06:25:48.447Z,15.97
2019-04-25T06:28:20.333Z,15.99
2019-04-25T06:30:51.133Z,15.84
2019-04-25T06:33:21.325Z,15.98
2019-04-25T06:35:50.894Z,16.08
2019-04-25T06:38:21.382Z,16.16
2019-04-25T06:40:51.125Z,16.21
2019-04-25T06:43:20.585Z,16.25
2019-04-25T06:46:08.187Z,16.32
2019-04-25T06:48:56.614Z,16.37
2019-04-25T06:51:46.046Z,16.31
2019-04-25T06:54:15.145Z,16.35
2019-04-25T06:56:44.642Z,16.51
2019-04-25T06:59:14.130Z,16.71
2019-04-25T07:01:44.005Z,16.65
2019-04-25T07:04:14.099Z,16.71
2019-04-25T07:06:45.496Z,16.65
2019-04-25T07:09:15.179Z,16.57
2019-04-25T07:11:44.746Z,16.64
2019-04-25T07:14:14.335Z,16.67
2019-04-25T07:16:44.228Z,16.85
2019-04-25T07:19:20.326Z,16.98
2019-04-25T07:21:50.358Z,17.04
2019-04-25T07:24:20.274Z,17.16
2019-04-25T07:27:08.047Z,17.16
2019-04-25T07:29:58.708Z,17.23
2019-04-25T07:32:38.843Z,17.31
2019-04-25T07:35:09.367Z,17.23
2019-04-25T07:37:41.503Z,17.36
2019-04-25T07:40:10.908Z,17.38
2019-04-25T07:42:40.404Z,17.44
2019-04-25T07:45:11.155Z,17.42
2019-04-25T07:47:40.901Z,17.57
2019-04-25T07:50:10.762Z,17.64
2019-04-25T07:52:40.307Z,17.74
2019-04-25T07:55:09.985Z,17.81
2019-04-25T07:57:39.504Z,17.90
2019-04-25T08:00:14.634Z,18.02
2019-04-25T08:02:44.136Z,18.15
2019-04-25T08:05:16.892Z,18.17
2019-04-25T08:07:46.429Z,18.12
2019-04-25T08:10:17.241Z,18.22
2019-04-25T08:12:47.484Z,18.25
2019-04-25T08:15:30.206Z,18.32
2019-04-25T08:18:09.749Z,18.32
2019-04-25T08:20:40.077Z,18.21
2019-04-25T08:23:09.774Z,18.27
2019-04-25T08:25:40.564Z,18.37
2019-04-25T08:28:10.257Z,18.54
2019-04-25T08:30:39.757Z,18.61
2019-04-25T08:33:09.306Z,18.56
2019-04-25T08:35:38.931Z,18.60
2019-04-25T08:38:08.467Z,18.53
2019-04-25T08:40:38.997Z,18.63
2019-04-25T08:43:08.571Z,18.75
2019-04-25T08:45:39.776Z,18.81
2019-04-25T08:48:09.522Z,18.87
2019-04-25T08:50:54.232Z,19.01
2019-04-25T08:53:26.973Z,19.04
2019-04-25T08:56:07.240Z,19.17
2019-04-25T08:59:06.211Z,19.20
2019-04-25T09:01:58.087Z,19.18
2019-04-25T09:04:38.831Z,19.26
2019-04-25T09:07:08.688Z,19.32
2019-04-25T09:09:39.023Z,19.29
2019-04-25T09:12:08.648Z,19.29
2019-04-25T09:14:38.968Z,19.41
2019-04-25T09:17:08.601Z,19.59
2019-04-25T09:19:38.466Z,19.82
2019-04-25T09:22:08.058Z,19.99
2019-04-25T09:24:38.749Z,19.99
2019-04-25T09:27:08.541Z,20.03
2019-04-25T09:29:38.907Z,20.06
2019-04-25T09:32:08.477Z,20.18
2019-04-25T09:34:38.155Z,20.21
2019-04-25T09:37:07.589Z,20.30
2019-04-25T09:40:02.075Z,20.37
2019-04-25T09:42:31.674Z,20.49
2019-04-25T09:45:15.264Z,20.48
2019-04-25T09:47:46.036Z,20.51
2019-04-25T09:50:33.958Z,20.53
2019-04-25T09:53:04.534Z,20.60
2019-04-25T09:55:54.231Z,20.75
2019-04-25T09:58:48.334Z,20.71
2019-04-25T10:01:17.251Z,20.73
2019-04-25T10:03:47.811Z,20.99
2019-04-25T10:06:19.414Z,21.10
2019-04-25T10:08:48.947Z,21.13
2019-04-25T10:11:18.440Z,20.97
2019-04-25T10:14:14.609Z,21.02
2019-04-25T10:16:44.701Z,21.14
2019-04-25T10:19:15.620Z,21.32
2019-04-25T10:21:45.257Z,21.50
2019-04-25T10:24:14.735Z,21.55
2019-04-25T10:26:46.395Z,21.68
2019-04-25T10:29:15.921Z,21.72
2019-04-25T10:31:45.572Z,21.76
2019-04-25T10:34:15.131Z,21.76
2019-04-25T10:36:45.409Z,21.85
2019-04-25T10:39:15.052Z,22.00
2019-04-25T10:41:46.487Z,22.05
2019-04-25T10:44:16.125Z,22.12
2019-04-25T10:46:47.239Z,22.22
2019-04-25T10:49:16.922Z,22.36
2019-04-25T10:51:46.446Z,22.40
2019-04-25T10:54:15.928Z,22.50
2019-04-25T10:56:47.110Z,22.52
2019-04-25T10:59:16.776Z,22.53
2019-04-25T11:01:47.287Z,22.53
2019-04-25T11:04:31.800Z,22.53
2019-04-25T11:07:01.350Z,22.54
2019-04-25T11:09:30.938Z,22.65
2019-04-25T11:12:00.495Z,22.74
2019-04-25T11:14:31.822Z,22.74
2019-04-25T11:17:01.734Z,22.79
2019-04-25T11:19:31.336Z,22.89
2019-04-25T11:22:00.938Z,22.90
2019-04-25T11:24:30.547Z,22.87
2019-04-25T11:27:00.062Z,22.87
2019-04-25T11:29:29.694Z,22.98
2019-04-25T11:31:59.303Z,23.12
2019-04-25T11:34:28.923Z,23.19
2019-04-25T11:36:58.565Z,23.31
2019-04-25T11:39:56.918Z,23.37
2019-04-25T11:42:26.864Z,23.44
2019-04-25T11:44:56.700Z,23.41
2019-04-25T11:47:26.581Z,23.43
2019-04-25T11:49:56.431Z,23.45
2019-04-25T11:52:28.206Z,23.46
2019-04-25T11:54:57.575Z,23.42
2019-04-25T11:57:28.588Z,23.49
2019-04-25T12:00:00.515Z,23.51
2019-04-25T12:02:30.179Z,23.41
2019-04-25T12:05:01.707Z,23.38
2019-04-25T12:07:31.383Z,23.51
2019-04-25T12:10:00.956Z,23.69
2019-04-25T12:12:30.975Z,23.72
2019-04-25T12:15:00.540Z,23.80
2019-04-25T12:17:30.269Z,23.90
2019-04-25T12:20:00.206Z,23.98
2019-04-25T12:22:29.851Z,24.01
2019-04-25T12:24:59.502Z,23.85
2019-04-25T12:27:29.177Z,23.98
2019-04-25T12:29:59.515Z,24.18
2019-04-25T12:32:35.069Z,24.25
2019-04-25T12:35:04.074Z,24.33
2019-04-25T12:37:35.091Z,24.15
2019-04-25T12:40:06.492Z,24.26
2019-04-25T12:42:36.251Z,24.40
2019-04-25T12:45:24.171Z,24.56
2019-04-25T12:47:56.597Z,24.52
2019-04-25T12:50:25.154Z,24.38
2019-04-25T12:52:55.973Z,24.31
2019-04-25T12:55:25.694Z,24.38
2019-04-25T12:57:56.488Z,24.45
2019-04-25T13:00:27.013Z,24.72
2019-04-25T13:02:56.710Z,24.88
2019-04-25T13:05:26.188Z,24.84
2019-04-25T13:07:57.420Z,24.81
2019-04-25T13:10:26.905Z,24.83
2019-04-25T13:12:56.450Z,24.90
2019-04-25T13:15:27.062Z,24.96
2019-04-25T13:17:57.076Z,24.96
2019-04-25T13:20:26.562Z,24.95
2019-04-25T13:22:56.235Z,24.99
2019-04-25T13:25:25.922Z,25.09
2019-04-25T13:28:20.604Z,25.16
2019-04-25T13:31:12.350Z,25.12
2019-04-25T13:34:02.016Z,25.05
2019-04-25T13:36:34.706Z,25.12
2019-04-25T13:39:07.578Z,25.17
2019-04-25T13:41:37.096Z,25.11
2019-04-25T13:44:07.148Z,25.12
2019-04-25T13:46:36.809Z,25.17
2019-04-25T13:49:06.679Z,25.09
2019-04-25T13:51:36.205Z,24.99
2019-04-25T13:54:06.091Z,25.04
2019-04-25T13:56:40.311Z,25.08
2019-04-25T13:59:07.568Z,25.16
2019-04-25T14:01:37.089Z,25.35
2019-04-25T14:04:07.220Z,25.59
2019-04-25T14:06:36.995Z,25.67
2019-04-25T14:09:13.448Z,25.58
2019-04-25T14:11:44.126Z,25.29
2019-04-25T14:14:13.770Z,25.11
2019-04-25T14:17:17.541Z,24.92
2019-04-25T14:20:04.775Z,24.92
2019-04-25T14:22:34.284Z,24.95
2019-04-25T14:25:04.071Z,24.93
2019-04-25T14:27:34.088Z,24.97
2019-04-25T14:30:04.255Z,24.88
2019-04-25T14:32:35.097Z,24.78
2019-04-25T14:35:05.051Z,24.65
2019-04-25T14:37:39.479Z,24.54
2019-04-25T14:40:06.822Z,24.33
2019-04-25T14:42:36.430Z,24.11
2019-04-25T14:45:06.463Z,24.07
2019-04-25T14:47:36.001Z,23.93
2019-04-25T14:50:05.800Z,23.89
2019-04-25T14:52:35.669Z,23.78
2019-04-25T14:55:19.633Z,23.65
2019-04-25T14:57:49.154Z,23.60
2019-04-25T15:00:26.422Z,23.54
2019-04-25T15:02:55.912Z,23.43
2019-04-25T15:05:26.515Z,23.38
2019-04-25T15:07:56.033Z,23.29
2019-04-25T15:10:26.491Z,23.19
2019-04-25T15:12:56.328Z,23.12
2019-04-25T15:15:26.614Z,23.01
2019-04-25T15:17:56.404Z,22.76
2019-04-25T15:20:26.211Z,22.61
2019-04-25T15:22:57.054Z,22.63
2019-04-25T15:25:27.450Z,22.64
2019-04-25T15:27:56.962Z,22.73
2019-04-25T15:30:29.534Z,22.70
2019-04-25T15:32:59.146Z,22.70
2019-04-25T15:35:38.352Z,22.63
2019-04-25T15:38:13.209Z,22.41
2019-04-25T15:40:53.144Z,22.40
2019-04-25T15:43:29.281Z,22.48
2019-04-25T15:46:16.555Z,22.53
2019-04-25T15:48:46.122Z,22.60
2019-04-25T15:51:15.624Z,22.53
2019-04-25T15:53:45.126Z,22.40
2019-04-25T15:56:14.630Z,22.41
2019-04-25T15:58:44.112Z,22.48
2019-04-25T16:01:13.623Z,22.58
2019-04-25T16:03:43.136Z,22.33
2019-04-25T16:06:12.822Z,22.24
2019-04-25T16:08:42.406Z,22.26
2019-04-25T16:11:11.937Z,22.16
2019-04-25T16:13:41.422Z,22.06
2019-04-25T16:16:10.932Z,21.89
2019-04-25T16:18:41.180Z,21.63
2019-04-25T16:21:10.839Z,21.47
2019-04-25T16:23:40.358Z,21.38
2019-04-25T16:26:09.939Z,21.28
2019-04-25T16:28:39.805Z,21.20
2019-04-25T16:31:11.055Z,20.97
2019-04-25T16:33:40.781Z,20.84
2019-04-25T16:36:10.330Z,20.59
2019-04-25T16:38:39.822Z,20.44
2019-04-25T16:41:10.732Z,20.42
2019-04-25T16:43:43.715Z,20.32
2019-04-25T16:46:14.293Z,20.22
2019-04-25T16:48:43.819Z,20.17
2019-04-25T16:51:14.425Z,20.07
2019-04-25T16:53:43.928Z,20.03
2019-04-25T16:56:13.701Z,19.98
2019-04-25T16:58:43.292Z,19.93
2019-04-25T17:01:14.312Z,19.87
2019-04-25T17:03:44.659Z,19.77
2019-04-25T17:06:14.415Z,19.58
2019-04-25T17:08:44.034Z,19.48
2019-04-25T17:11:13.686Z,19.34
2019-04-25T17:13:49.382Z,19.28
2019-04-25T17:16:37.926Z,19.17
2019-04-25T17:19:10.951Z,19.06
2019-04-25T17:21:40.626Z,18.95
2019-04-25T17:24:10.150Z,18.87
2019-04-25T17:26:39.699Z,18.73
2019-04-25T17:29:12.790Z,18.66
2019-04-25T17:32:01.487Z,18.56
2019-04-25T17:34:48.696Z,18.57
2019-04-25T17:37:24.647Z,18.52
2019-04-25T17:40:00.606Z,18.44
2019-04-25T17:42:30.910Z,18.42
2019-04-25T17:45:00.603Z,18.35
2019-04-25T17:47:30.340Z,18.30
2019-04-25T17:49:59.820Z,18.25
2019-04-25T17:52:29.359Z,18.18
2019-04-25T17:54:58.875Z,18.17
2019-04-25T17:57:28.438Z,18.15
2019-04-25T17:59:57.948Z,18.12
2019-04-25T18:02:28.084Z,18.15
2019-04-25T18:04:57.569Z,18.08
2019-04-25T18:07:27.067Z,18.02
2019-04-25T18:09:56.743Z,17.99
2019-04-25T18:12:26.488Z,18.00
2019-04-25T18:14:57.704Z,17.93
2019-04-25T18:17:27.269Z,17.88
2019-04-25T18:20:05.416Z,17.88
2019-04-25T18:22:56.691Z,17.81
2019-04-25T18:25:51.104Z,17.76
2019-04-25T18:28:32.689Z,17.67
2019-04-25T18:31:02.965Z,17.66
2019-04-25T18:33:32.609Z,17.60
2019-04-25T18:36:18.481Z,17.54
2019-04-25T18:38:57.268Z,17.52
2019-04-25T18:41:35.393Z,17.50
2019-04-25T18:44:06.959Z,17.50
2019-04-25T18:46:40.515Z,17.51
2019-04-25T18:49:10.120Z,17.56
2019-04-25T18:51:40.642Z,17.54
2019-04-25T18:54:29.132Z,17.57
2019-04-25T18:57:06.111Z,17.58
2019-04-25T18:59:55.445Z,17.65
2019-04-25T19:02:49.680Z,17.65
2019-04-25T19:05:41.076Z,17.62
2019-04-25T19:08:10.674Z,17.56
2019-04-25T19:10:40.774Z,17.52
2019-04-25T19:13:12.883Z,17.37
2019-04-25T19:15:43.239Z,17.34
2019-04-25T19:18:12.844Z,17.23
2019-04-25T19:20:43.962Z,17.22
2019-04-25T19:23:13.643Z,17.20
2019-04-25T19:25:43.729Z,17.17
2019-04-25T19:28:13.288Z,17.19
2019-04-25T19:30:43.103Z,17.13
2019-04-25T19:33:12.716Z,17.05
2019-04-25T19:35:42.180Z,17.01
2019-04-25T19:38:11.706Z,16.92
2019-04-25T19:40:49.647Z,16.86
2019-04-25T19:43:29.258Z,16.81
2019-04-25T19:45:58.817Z,16.80
2019-04-25T19:48:28.510Z,16.69
2019-04-25T19:50:57.998Z,16.68
2019-04-25T19:53:27.493Z,16.64
2019-04-25T19:55:56.975Z,16.61
2019-04-25T19:58:26.448Z,16.60
2019-04-25T20:00:56.060Z,16.62
2019-04-25T20:03:49.249Z,16.59
2019-04-25T20:06:17.866Z,16.59
2019-04-25T20:08:52.923Z,16.60
2019-04-25T20:11:28.729Z,16.63
2019-04-25T20:13:58.220Z,16.65
2019-04-25T20:16:29.359Z,16.64
2019-04-25T20:18:58.898Z,16.66
2019-04-25T20:21:28.362Z,16.70
2019-04-25T20:23:57.841Z,16.71
2019-04-25T20:26:27.357Z,16.67
2019-04-25T20:28:56.845Z,16.64
2019-04-25T20:31:26.559Z,16.65
2019-04-25T20:34:05.269Z,16.59
2019-04-25T20:36:27.283Z,16.56
2019-04-25T20:38:56.812Z,16.54
2019-04-25T20:41:26.291Z,16.50
2019-04-25T20:43:55.775Z,16.46
2019-04-25T20:46:25.239Z,16.46
2019-04-25T20:48:54.786Z,16.44
2019-04-25T20:51:24.268Z,16.46
2019-04-25T20:53:53.760Z,16.45
2019-04-25T20:56:23.294Z,16.50
2019-04-25T20:58:53.514Z,16.45
2019-04-25T21:01:23.044Z,16.42
2019-04-25T21:03:52.509Z,16.37
2019-04-25T21:06:32.425Z,16.38
2019-04-25T21:09:02.284Z,16.35
2019-04-25T21:11:31.858Z,16.30
2019-04-25T21:14:19.354Z,16.25
2019-04-25T21:17:02.838Z,16.25
2019-04-25T21:19:34.614Z,16.14
2019-04-25T21:22:04.086Z,16.07
2019-04-25T21:24:33.579Z,15.96
2019-04-25T21:27:03.096Z,15.94
2019-04-25T21:29:32.571Z,15.91
2019-04-25T21:32:02.061Z,15.90
2019-04-25T21:34:31.587Z,15.85
2019-04-25T21:37:02.099Z,15.80
2019-04-25T21:39:55.102Z,15.78
2019-04-25T21:42:34.869Z,15.72
2019-04-25T21:45:05.110Z,15.73
2019-04-25T21:47:34.596Z,15.65
2019-04-25T21:50:04.819Z,15.62
2019-04-25T21:52:34.566Z,15.57
2019-04-25T21:55:04.486Z,15.52
2019-04-25T21:57:34.163Z,15.41
2019-04-25T22:00:08.879Z,15.41
2019-04-25T22:02:36.105Z,15.41
2019-04-25T22:05:06.447Z,15.40
2019-04-25T22:07:36.117Z,15.41
2019-04-25T22:10:07.411Z,15.37
2019-04-25T22:12:36.976Z,15.29
2019-04-25T22:15:09.531Z,15.18
2019-04-25T22:17:39.041Z,15.17
2019-04-25T22:20:09.118Z,15.05
2019-04-25T22:22:38.620Z,14.97
2019-04-25T22:25:08.107Z,14.98
2019-04-25T22:27:37.963Z,15.02
2019-04-25T22:30:09.553Z,14.98
2019-04-25T22:33:01.586Z,15.00
2019-04-25T22:35:49.136Z,14.91
2019-04-25T22:38:18.996Z,14.86
2019-04-25T22:40:48.498Z,14.83
2019-04-25T22:43:20.050Z,14.80
2019-04-25T22:45:49.846Z,14.79
2019-04-25T22:48:26.128Z,14.76
2019-04-25T22:50:55.922Z,14.78
2019-04-25T22:53:26.203Z,14.71
2019-04-25T22:55:56.525Z,14.73
2019-04-25T22:58:26.052Z,14.70
2019-04-25T23:00:55.579Z,14.64
2019-04-25T23:03:33.250Z,14.64
2019-04-25T23:06:02.822Z,14.65
2019-04-25T23:08:33.425Z,14.53
2019-04-25T23:11:02.919Z,14.33
2019-04-25T23:13:32.361Z,14.25
2019-04-25T23:16:02.531Z,14.21
2019-04-25T23:18:33.063Z,14.24
2019-04-25T23:21:02.535Z,14.28
2019-04-25T23:23:32.458Z,14.23
2019-04-25T23:26:29.886Z,14.12
2019-04-25T23:29:00.384Z,14.05
2019-04-25T23:31:31.284Z,14.05
2019-04-25T23:34:01.036Z,14.11
2019-04-25T23:36:30.513Z,14.18
2019-04-25T23:39:00.017Z,14.17
2019-04-25T23:41:29.918Z,14.17
2019-04-25T23:43:59.395Z,14.19
2019-04-25T23:46:29.247Z,14.17
2019-04-25T23:48:58.784Z,14.18
2019-04-25T23:51:28.264Z,14.15
2019-04-25T23:53:58.063Z,14.19
2019-04-25T23:56:27.576Z,14.17
2019-04-25T23:58:57.446Z,14.13
